Time;durP1;ratioP1;P1;durP2;ratioP2;P2;SDS_P1;SDS_P2;PMS_P1;PMS_P2;Temp;Humidity;BMP_temperature;BMP_pressure;BME280_temperature;BME280_humidity;BME280_pressure;Samples;Min_cycle;Max_cycle;Signal;HPM_P1;HPM_P2
2022/10/01 00:00:15;;;;;;;6.00;3.23;;;8.30;99.90;;;;;;5050859;28;20434;-65
2022/10/01 00:02:41;;;;;;;4.40;3.67;;;8.30;99.90;;;;;;5030392;28;20192;-64
2022/10/01 00:05:10;;;;;;;10.10;3.63;;;8.30;99.90;;;;;;5030546;28;20683;-64
2022/10/01 00:07:40;;;;;;;7.17;3.67;;;8.20;99.90;;;;;;5029015;28;20785;-63
2022/10/01 00:10:06;;;;;;;6.63;4.20;;;8.20;99.90;;;;;;5030572;28;20426;-64
2022/10/01 00:12:32;;;;;;;4.80;3.47;;;8.20;99.90;;;;;;5018648;28;20523;-64
2022/10/01 00:14:58;;;;;;;5.13;3.50;;;8.20;99.90;;;;;;5027929;28;20438;-64
2022/10/01 00:17:24;;;;;;;4.10;2.77;;;8.10;99.90;;;;;;5013280;28;20785;-63
2022/10/01 00:19:49;;;;;;;5.03;3.60;;;8.10;99.90;;;;;;5030345;28;20172;-64
2022/10/01 00:22:15;;;;;;;8.47;3.80;;;8.10;99.90;;;;;;5026717;28;20565;-64
2022/10/01 00:24:41;;;;;;;4.40;3.40;;;8.00;99.90;;;;;;5026264;28;20275;-64
2022/10/01 00:27:06;;;;;;;6.93;3.53;;;7.90;99.90;;;;;;5025817;28;20234;-64
2022/10/01 00:29:32;;;;;;;4.27;3.60;;;7.90;99.90;;;;;;5051950;28;20188;-64
2022/10/01 00:31:57;;;;;;;5.90;3.97;;;7.90;99.90;;;;;;5034526;28;20262;-64
2022/10/01 00:34:23;;;;;;;4.33;3.50;;;7.90;99.90;;;;;;5028566;28;20247;-64
2022/10/01 00:36:49;;;;;;;9.00;3.77;;;7.80;99.90;;;;;;5025482;28;20674;-64
2022/10/01 00:39:15;;;;;;;4.23;3.43;;;7.80;99.90;;;;;;5032044;28;20187;-64
2022/10/01 00:41:40;;;;;;;4.57;4.07;;;7.80;99.90;;;;;;5027794;28;20214;-65
2022/10/01 00:44:31;;;;;;;5.70;2.90;;;7.70;99.90;;;;;;5066890;23;20219;-62
2022/10/01 00:47:07;;;;;;;4.43;3.17;;;7.70;99.90;;;;;;5043044;28;20425;-61
2022/10/01 00:49:36;;;;;;;3.77;3.37;;;7.70;99.90;;;;;;5042601;28;20753;-63
2022/10/01 00:52:07;;;;;;;4.33;3.63;;;7.60;99.90;;;;;;5043996;28;20853;-61
2022/10/01 00:54:56;;;;;;;5.10;2.80;;;7.60;99.90;;;;;;5029186;28;20438;-63
2022/10/01 00:57:24;;;;;;;5.03;3.90;;;7.60;99.90;;;;;;5023333;28;21137;-63
2022/10/01 00:59:51;;;;;;;9.73;3.43;;;7.60;99.90;;;;;;5027730;28;20432;-62
2022/10/01 01:02:17;;;;;;;4.67;3.53;;;7.60;99.90;;;;;;5020742;28;20435;-63
2022/10/01 01:04:43;;;;;;;4.87;3.83;;;7.60;99.90;;;;;;5025890;28;20434;-62
2022/10/01 01:07:09;;;;;;;5.20;4.33;;;7.50;99.90;;;;;;5028132;28;20178;-63
2022/10/01 01:09:41;;;;;;;8.10;4.20;;;7.50;99.90;;;;;;5024506;28;20533;-63
2022/10/01 01:12:31;;;;;;;10.23;3.77;;;7.50;99.90;;;;;;5020391;28;20470;-62
2022/10/01 01:15:18;;;;;;;4.33;3.53;;;7.50;99.90;;;;;;5027059;28;20808;-60
2022/10/01 01:17:50;;;;;;;3.13;2.83;;;7.50;99.90;;;;;;5014981;28;20458;-61
2022/10/01 01:20:36;;;;;;;4.63;3.27;;;7.40;99.90;;;;;;5024504;28;20564;-62
2022/10/01 01:23:15;;;;;;;4.57;3.53;;;7.40;99.90;;;;;;5024407;28;20502;-61
2022/10/01 01:25:46;;;;;;;3.67;3.30;;;7.30;99.90;;;;;;5025420;28;20439;-63
2022/10/01 01:28:30;;;;;;;4.57;3.87;;;7.30;99.90;;;;;;5027817;28;20445;-62
2022/10/01 01:31:02;;;;;;;5.23;4.33;;;7.30;99.90;;;;;;5039816;28;20458;-63
2022/10/01 01:33:31;;;;;;;4.97;4.07;;;7.20;99.90;;;;;;5026643;28;21051;-62
2022/10/01 01:36:03;;;;;;;6.30;4.50;;;7.20;99.90;;;;;;5022089;28;20439;-62
2022/10/01 01:38:36;;;;;;;5.27;4.27;;;7.20;99.90;;;;;;5020770;28;20933;-62
2022/10/01 01:41:04;;;;;;;9.80;4.57;;;7.20;99.90;;;;;;5025984;28;20542;-62
2022/10/01 01:43:34;;;;;;;5.33;3.70;;;7.20;99.90;;;;;;5028230;28;20474;-63
2022/10/01 01:46:03;;;;;;;6.33;3.87;;;7.20;99.90;;;;;;5027329;28;20658;-64
2022/10/01 01:48:31;;;;;;;4.93;4.40;;;7.20;99.90;;;;;;5028132;28;20449;-63
2022/10/01 01:51:05;;;;;;;4.33;3.93;;;7.20;99.90;;;;;;5028491;28;20473;-61
2022/10/01 01:53:31;;;;;;;7.27;4.50;;;7.20;99.90;;;;;;5028771;28;20465;-61
2022/10/01 01:55:59;;;;;;;4.57;3.93;;;7.10;99.90;;;;;;5027596;28;20439;-63
2022/10/01 01:58:26;;;;;;;5.97;4.60;;;7.10;99.90;;;;;;5031562;28;20728;-61
2022/10/01 02:00:52;;;;;;;4.67;4.07;;;7.10;99.90;;;;;;5024789;28;20445;-63
2022/10/01 02:03:24;;;;;;;5.43;3.80;;;7.10;99.90;;;;;;5022896;28;20458;-63
2022/10/01 02:06:36;;;;;;;5.80;3.90;;;7.10;99.90;;;;;;5025708;28;20426;-62
2022/10/01 02:09:37;;;;;;;5.70;4.90;;;7.00;99.90;;;;;;4998806;28;20450;-62
2022/10/01 02:12:18;;;;;;;5.43;3.43;;;7.00;99.90;;;;;;5016164;28;20470;-60
2022/10/01 02:15:22;;;;;;;3.90;3.07;;;7.00;99.90;;;;;;5017035;28;20430;-61
2022/10/01 02:18:06;;;;;;;8.13;3.00;;;7.00;99.90;;;;;;5022463;28;20525;-62
2022/10/01 02:20:45;;;;;;;28.97;3.67;;;7.00;99.90;;;;;;5026454;28;20492;-63
2022/10/01 02:23:15;;;;;;;4.53;3.30;;;6.90;99.90;;;;;;5020947;28;20998;-59
2022/10/01 02:26:07;;;;;;;7.80;3.20;;;6.80;99.90;;;;;;5031538;28;20434;-62
2022/10/01 02:28:37;;;;;;;35.43;5.90;;;6.80;99.90;;;;;;5004121;28;20427;-61
2022/10/01 02:31:03;;;;;;;32.97;5.97;;;6.80;99.90;;;;;;5017093;28;20840;-62
2022/10/01 02:33:33;;;;;;;60.30;7.40;;;6.80;99.90;;;;;;5025645;28;20454;-62
2022/10/01 02:36:02;;;;;;;23.13;6.10;;;6.80;99.90;;;;;;5022021;28;20452;-61
2022/10/01 02:38:29;;;;;;;11.60;5.47;;;6.80;99.90;;;;;;5023663;28;20446;-63
2022/10/01 02:40:59;;;;;;;17.63;6.40;;;6.90;99.90;;;;;;5008772;28;20944;-62
2022/10/01 02:43:32;;;;;;;10.30;5.67;;;6.90;99.90;;;;;;5017442;28;20584;-63
2022/10/01 02:46:37;;;;;;;12.73;5.40;;;6.90;99.90;;;;;;5000958;28;20434;-64
2022/10/01 02:49:03;;;;;;;26.73;6.53;;;7.00;99.90;;;;;;5015444;28;20540;-64
2022/10/01 02:51:29;;;;;;;30.77;7.47;;;7.00;99.90;;;;;;5024948;28;20469;-66
2022/10/01 02:54:01;;;;;;;25.73;6.00;;;7.00;99.90;;;;;;5019619;28;20454;-62
2022/10/01 02:59:16;;;;;;;18.20;6.10;;;6.90;99.90;;;;;;5013270;28;20979;-63
2022/10/01 03:01:42;;;;;;;17.33;5.63;;;6.90;99.90;;;;;;5021917;28;20442;-63
2022/10/01 03:04:07;;;;;;;12.77;5.23;;;6.90;99.90;;;;;;5025319;28;20250;-63
2022/10/01 03:06:34;;;;;;;9.20;5.97;;;6.90;99.90;;;;;;5018828;28;20189;-63
2022/10/01 03:09:00;;;;;;;9.57;5.77;;;6.90;99.90;;;;;;5029559;28;20187;-63
2022/10/01 03:11:26;;;;;;;21.33;6.43;;;6.90;99.90;;;;;;5018067;28;20464;-61
2022/10/01 03:13:52;;;;;;;8.80;5.13;;;6.90;99.90;;;;;;5026262;28;20932;-62
2022/10/01 03:16:18;;;;;;;10.33;5.20;;;6.90;99.90;;;;;;5015472;28;20184;-62
2022/10/01 03:18:43;;;;;;;8.00;4.70;;;6.90;99.90;;;;;;5023958;28;20464;-62
2022/10/01 03:21:09;;;;;;;10.33;4.93;;;6.80;99.90;;;;;;5022771;28;20207;-62
2022/10/01 03:23:35;;;;;;;7.03;4.83;;;6.90;99.90;;;;;;5043256;28;20208;-63
2022/10/01 03:26:00;;;;;;;12.80;5.93;;;6.80;99.90;;;;;;5023283;28;20275;-61
2022/10/01 03:28:26;;;;;;;9.40;5.77;;;6.80;99.90;;;;;;5038494;28;20192;-62
2022/10/01 03:30:51;;;;;;;10.03;5.70;;;6.90;99.90;;;;;;5024960;28;20695;-62
2022/10/01 03:33:17;;;;;;;10.53;5.43;;;6.90;99.90;;;;;;5026089;28;20200;-61
2022/10/01 03:35:42;;;;;;;15.53;6.70;;;6.90;99.90;;;;;;5022695;28;20266;-62
2022/10/01 03:38:08;;;;;;;8.10;5.60;;;6.90;99.90;;;;;;5022118;28;20180;-63
2022/10/01 03:40:37;;;;;;;12.43;5.47;;;6.90;99.90;;;;;;5023259;28;20207;-61
2022/10/01 03:43:03;;;;;;;15.03;4.60;;;6.90;99.90;;;;;;5041229;28;20211;-63
2022/10/01 03:45:28;;;;;;;11.23;5.20;;;6.90;99.90;;;;;;5023601;28;20444;-61
2022/10/01 03:47:54;;;;;;;8.83;4.83;;;6.90;99.90;;;;;;5026608;28;20617;-62
2022/10/01 03:50:20;;;;;;;11.20;5.80;;;6.80;99.90;;;;;;5009589;28;20183;-63
2022/10/01 03:52:46;;;;;;;9.07;6.00;;;6.80;99.90;;;;;;5039702;28;20201;-63
2022/10/01 03:55:12;;;;;;;7.40;4.60;;;6.80;99.90;;;;;;5018936;28;20788;-63
2022/10/01 03:57:38;;;;;;;6.47;4.70;;;6.80;99.90;;;;;;5023316;28;20438;-64
2022/10/01 04:00:08;;;;;;;7.07;5.13;;;6.80;99.90;;;;;;5026357;28;20172;-62
2022/10/01 04:02:33;;;;;;;7.13;4.53;;;6.80;99.90;;;;;;5023012;28;20671;-62
2022/10/01 04:04:59;;;;;;;8.40;4.43;;;6.80;99.90;;;;;;5024847;28;20497;-62
2022/10/01 04:07:25;;;;;;;9.43;5.60;;;6.80;99.90;;;;;;5021617;28;20190;-62
2022/10/01 04:09:50;;;;;;;8.33;4.70;;;6.80;99.90;;;;;;5024706;28;20237;-62
2022/10/01 04:12:17;;;;;;;11.43;5.67;;;6.80;99.90;;;;;;5024638;28;20771;-63
2022/10/01 04:14:43;;;;;;;6.00;4.40;;;6.80;99.90;;;;;;5024376;28;20199;-60
2022/10/01 04:17:08;;;;;;;8.20;4.87;;;6.80;99.90;;;;;;5025636;28;20470;-61
2022/10/01 04:19:34;;;;;;;5.43;4.67;;;6.80;99.90;;;;;;5038060;28;20176;-62
2022/10/01 04:21:59;;;;;;;5.70;4.40;;;6.80;99.90;;;;;;5028383;28;20183;-60
2022/10/01 04:24:25;;;;;;;7.33;5.20;;;6.80;99.90;;;;;;5042926;28;20210;-61
2022/10/01 04:26:51;;;;;;;7.40;5.27;;;6.80;99.90;;;;;;5025834;28;20223;-62
2022/10/01 04:29:16;;;;;;;6.93;5.07;;;6.80;99.90;;;;;;5024712;28;20535;-62
2022/10/01 04:31:42;;;;;;;6.77;4.93;;;6.80;99.90;;;;;;5030044;28;20692;-62
2022/10/01 04:34:07;;;;;;;7.20;5.20;;;6.80;99.90;;;;;;5013093;28;20203;-63
2022/10/01 04:36:33;;;;;;;6.67;4.93;;;6.80;99.90;;;;;;5023397;28;20598;-61
2022/10/01 04:38:59;;;;;;;6.17;4.90;;;6.80;99.90;;;;;;5024912;28;20203;-62
2022/10/01 04:41:24;;;;;;;19.60;6.90;;;6.90;99.90;;;;;;5041433;28;20275;-61
2022/10/01 04:43:50;;;;;;;9.50;6.03;;;6.90;99.90;;;;;;5025853;28;20210;-61
2022/10/01 04:46:16;;;;;;;15.50;6.07;;;6.90;99.90;;;;;;5007199;28;20180;-62
2022/10/01 04:48:42;;;;;;;16.03;6.90;;;6.90;99.90;;;;;;5029978;28;20234;-63
2022/10/01 04:51:08;;;;;;;9.50;6.83;;;7.00;99.90;;;;;;5025462;28;20277;-61
2022/10/01 04:53:33;;;;;;;12.63;8.13;;;7.00;99.90;;;;;;5028456;28;20204;-63
2022/10/01 04:55:59;;;;;;;9.80;7.30;;;7.00;99.90;;;;;;5023935;28;20434;-62
2022/10/01 04:58:25;;;;;;;14.50;7.17;;;7.00;99.90;;;;;;5028518;28;20208;-63
2022/10/01 05:00:51;;;;;;;8.47;6.57;;;7.10;99.90;;;;;;5020137;28;20207;-63
2022/10/01 05:03:17;;;;;;;11.20;7.13;;;7.10;99.90;;;;;;5023815;28;20912;-63
2022/10/01 05:05:43;;;;;;;11.60;6.70;;;7.20;99.90;;;;;;5031593;28;20670;-62
2022/10/01 05:08:08;;;;;;;8.33;6.10;;;7.20;99.90;;;;;;5012134;28;20453;-62
2022/10/01 05:10:35;;;;;;;8.17;6.20;;;7.30;99.90;;;;;;5009247;28;20220;-61
2022/10/01 05:13:01;;;;;;;11.30;6.20;;;7.30;99.90;;;;;;5016994;28;20736;-61
2022/10/01 05:15:27;;;;;;;8.13;5.73;;;7.30;99.90;;;;;;5022679;28;20527;-61
2022/10/01 05:17:53;;;;;;;7.83;5.83;;;7.40;99.90;;;;;;5008423;28;20172;-63
2022/10/01 05:20:22;;;;;;;11.20;6.40;;;7.40;99.90;;;;;;5026327;28;20966;-62
2022/10/01 05:22:51;;;;;;;8.23;6.00;;;7.50;99.90;;;;;;5022634;28;20192;-63
2022/10/01 05:25:18;;;;;;;13.87;6.23;;;7.50;99.90;;;;;;5030140;28;20872;-62
2022/10/01 05:27:44;;;;;;;10.23;5.47;;;7.60;99.90;;;;;;5015991;28;20504;-62
2022/10/01 05:30:11;;;;;;;11.73;6.13;;;7.60;99.90;;;;;;5025265;28;20612;-61
2022/10/01 05:32:37;;;;;;;10.40;5.53;;;7.70;99.90;;;;;;5024005;28;20482;-62
2022/10/01 05:35:05;;;;;;;7.87;5.60;;;7.70;99.90;;;;;;5012569;28;20431;-62
2022/10/01 05:37:31;;;;;;;8.33;6.03;;;7.70;99.90;;;;;;5009631;28;20434;-63
2022/10/01 05:39:57;;;;;;;9.30;6.17;;;7.70;99.90;;;;;;5026661;28;20433;-63
2022/10/01 05:42:23;;;;;;;9.83;5.77;;;7.80;99.90;;;;;;5036644;28;20176;-64
2022/10/01 05:44:48;;;;;;;9.50;6.20;;;7.80;99.90;;;;;;5039790;28;20192;-63
2022/10/01 05:47:15;;;;;;;7.10;5.93;;;7.80;99.90;;;;;;5013472;28;20669;-63
2022/10/01 05:49:43;;;;;;;6.50;5.37;;;7.80;99.90;;;;;;5023271;28;20657;-61
2022/10/01 05:52:10;;;;;;;8.53;6.40;;;7.80;99.90;;;;;;5024851;28;20591;-64
2022/10/01 05:54:36;;;;;;;9.00;6.20;;;7.80;99.90;;;;;;5024879;28;20458;-63
2022/10/01 05:57:01;;;;;;;6.70;5.70;;;7.90;99.90;;;;;;5022500;28;20431;-62
2022/10/01 05:59:27;;;;;;;9.63;6.33;;;7.90;99.90;;;;;;5019773;28;20458;-61
2022/10/01 06:01:53;;;;;;;8.37;6.30;;;7.90;99.90;;;;;;5023403;28;20180;-60
2022/10/01 06:04:18;;;;;;;9.00;7.40;;;7.90;99.90;;;;;;5033975;28;20213;-64
2022/10/01 06:06:45;;;;;;;7.00;5.97;;;7.90;99.90;;;;;;5025440;28;20186;-63
2022/10/01 06:09:11;;;;;;;8.37;6.20;;;7.90;99.90;;;;;;5024436;28;20180;-62
2022/10/01 06:11:38;;;;;;;9.83;6.60;;;8.00;99.90;;;;;;5012209;28;20462;-62
2022/10/01 06:14:03;;;;;;;7.60;5.17;;;8.00;99.90;;;;;;5022532;28;20484;-63
2022/10/01 06:16:29;;;;;;;7.33;5.90;;;8.00;99.90;;;;;;5023858;28;20516;-62
2022/10/01 06:18:56;;;;;;;9.13;6.10;;;8.00;99.90;;;;;;5022200;28;20419;-61
2022/10/01 06:21:23;;;;;;;8.00;5.57;;;8.00;99.90;;;;;;5024697;28;20179;-64
2022/10/01 06:23:49;;;;;;;8.93;5.43;;;8.00;99.90;;;;;;5024806;28;20449;-63
2022/10/01 06:26:16;;;;;;;6.63;5.70;;;8.10;99.90;;;;;;5020245;28;20929;-63
2022/10/01 06:28:41;;;;;;;8.63;5.67;;;8.10;99.90;;;;;;5025102;28;20435;-62
2022/10/01 06:31:07;;;;;;;13.13;6.53;;;8.10;99.90;;;;;;5025187;28;20464;-63
2022/10/01 06:33:33;;;;;;;10.33;6.53;;;8.20;99.90;;;;;;5026850;28;20274;-61
2022/10/01 06:35:59;;;;;;;15.60;8.33;;;8.20;99.90;;;;;;5039051;28;20302;-64
2022/10/01 06:38:25;;;;;;;10.73;7.83;;;8.20;99.90;;;;;;5025406;28;20913;-60
2022/10/01 06:40:56;;;;;;;8.37;6.40;;;8.20;99.90;;;;;;5022375;28;20176;-63
2022/10/01 06:43:23;;;;;;;10.30;7.20;;;8.20;99.90;;;;;;5020875;28;20203;-61
2022/10/01 06:45:49;;;;;;;8.53;5.80;;;8.30;99.90;;;;;;5039381;28;20435;-63
2022/10/01 06:48:17;;;;;;;7.90;6.57;;;8.30;99.90;;;;;;5024739;28;20858;-63
2022/10/01 06:50:44;;;;;;;10.30;7.07;;;8.30;99.90;;;;;;5010074;28;20183;-62
2022/10/01 06:53:11;;;;;;;7.87;6.60;;;8.40;99.90;;;;;;5020274;28;20454;-63
2022/10/01 06:55:37;;;;;;;8.30;6.17;;;8.40;99.90;;;;;;5021892;28;20911;-63
2022/10/01 06:58:10;;;;;;;9.10;6.57;;;8.40;99.90;;;;;;5036568;23;20525;-63
2022/10/01 07:00:37;;;;;;;8.47;5.90;;;8.40;99.90;;;;;;5000740;28;20450;-64
2022/10/01 07:03:09;;;;;;;7.90;6.73;;;8.40;99.90;;;;;;5014681;28;20430;-63
2022/10/01 07:05:34;;;;;;;7.10;5.90;;;8.50;99.90;;;;;;5020874;28;20437;-66
2022/10/01 07:08:00;;;;;;;7.10;5.63;;;8.50;99.90;;;;;;5021296;28;20422;-69
2022/10/01 07:10:26;;;;;;;6.87;5.70;;;8.50;99.90;;;;;;5001006;28;20188;-69
2022/10/01 07:12:51;;;;;;;6.67;5.20;;;8.40;99.90;;;;;;4985964;28;20442;-65
2022/10/01 07:15:20;;;;;;;8.90;6.17;;;8.40;99.90;;;;;;5005301;28;20234;-65
2022/10/01 07:17:50;;;;;;;8.50;6.03;;;8.40;99.90;;;;;;5012139;28;20188;-64
2022/10/01 07:20:18;;;;;;;7.27;5.20;;;8.40;99.90;;;;;;4998415;28;20539;-64
2022/10/01 07:22:45;;;;;;;8.13;6.10;;;8.50;99.90;;;;;;4995660;28;20494;-64
2022/10/01 07:25:11;;;;;;;8.90;6.00;;;8.50;99.90;;;;;;5002398;28;20960;-62
2022/10/01 07:27:37;;;;;;;8.70;5.93;;;8.50;99.90;;;;;;5002600;28;20439;-65
2022/10/01 07:30:04;;;;;;;7.67;5.73;;;8.50;99.90;;;;;;5005691;28;20455;-64
2022/10/01 07:32:34;;;;;;;10.53;6.90;;;8.50;99.90;;;;;;5006358;28;20216;-64
2022/10/01 07:35:00;;;;;;;8.73;6.40;;;8.50;99.90;;;;;;5002521;28;20486;-64
2022/10/01 07:37:26;;;;;;;14.33;5.90;;;8.50;99.90;;;;;;4999479;28;20820;-66
2022/10/01 07:39:52;;;;;;;7.43;5.80;;;8.50;99.90;;;;;;5005578;28;20443;-66
2022/10/01 07:42:17;;;;;;;6.47;5.30;;;8.50;99.90;;;;;;4986053;28;20443;-64
2022/10/01 07:44:43;;;;;;;5.83;5.23;;;8.50;99.90;;;;;;4997020;28;21658;-63
2022/10/01 07:47:09;;;;;;;9.73;5.07;;;8.50;99.90;;;;;;5001523;28;20188;-58
2022/10/01 07:49:35;;;;;;;5.67;4.67;;;8.50;99.90;;;;;;5001097;28;20196;-63
2022/10/01 07:52:01;;;;;;;4.87;4.33;;;8.50;99.90;;;;;;5006036;28;20477;-64
2022/10/01 07:54:26;;;;;;;4.27;3.87;;;8.50;99.90;;;;;;4990830;28;20169;-64
2022/10/01 07:56:54;;;;;;;5.00;4.30;;;8.60;99.90;;;;;;5005572;28;20176;-64
2022/10/01 07:59:23;;;;;;;6.07;4.30;;;8.60;99.90;;;;;;5006276;28;20575;-64
2022/10/01 08:01:52;;;;;;;9.47;4.63;;;8.60;99.90;;;;;;5000321;28;20423;-64
2022/10/01 08:07:07;;;;;;;4.73;4.23;;;8.70;99.90;;;;;;5004490;28;20501;-64
2022/10/01 08:09:33;;;;;;;8.10;4.50;;;8.70;99.90;;;;;;5006158;28;21032;-63
2022/10/01 08:11:58;;;;;;;4.30;3.90;;;8.70;99.90;;;;;;5005670;28;20467;-64
2022/10/01 08:14:25;;;;;;;5.73;4.60;;;8.70;99.90;;;;;;5004883;28;20439;-64
2022/10/01 08:16:53;;;;;;;8.60;4.43;;;8.70;99.90;;;;;;5005093;28;20173;-64
2022/10/01 08:19:19;;;;;;;6.00;4.70;;;8.70;99.90;;;;;;4999312;28;20538;-64
2022/10/01 08:21:44;;;;;;;5.00;4.27;;;8.80;99.90;;;;;;4985871;28;20605;-65
2022/10/01 08:24:10;;;;;;;5.23;4.43;;;8.80;99.90;;;;;;4999522;28;20180;-65
2022/10/01 08:26:35;;;;;;;4.90;4.20;;;8.80;99.90;;;;;;5005360;28;20562;-61
2022/10/01 08:29:01;;;;;;;8.63;4.53;;;8.80;99.90;;;;;;5005492;28;20196;-61
2022/10/01 08:31:27;;;;;;;4.87;4.47;;;8.80;99.90;;;;;;5000149;28;20639;-64
2022/10/01 08:33:52;;;;;;;7.20;4.83;;;8.80;99.90;;;;;;4988370;28;20180;-65
2022/10/01 08:36:19;;;;;;;6.20;4.90;;;8.70;99.90;;;;;;5006138;28;20230;-64
2022/10/01 08:38:46;;;;;;;8.10;4.80;;;8.80;99.90;;;;;;5005507;28;20575;-64
2022/10/01 08:41:39;;;;;;;13.73;4.90;;;8.70;99.90;;;;;;5008060;28;20590;-64
2022/10/01 08:44:11;;;;;;;6.23;4.70;;;8.70;99.90;;;;;;5000375;28;20432;-64
2022/10/01 08:46:37;;;;;;;4.30;3.87;;;8.70;99.90;;;;;;4998216;28;20440;-65
2022/10/01 08:49:02;;;;;;;6.23;4.30;;;8.70;99.90;;;;;;5003302;28;20474;-64
2022/10/01 08:51:37;;;;;;;7.30;4.97;;;8.70;99.90;;;;;;5000161;28;20380;-65
2022/10/01 08:54:21;;;;;;;7.47;4.23;;;8.70;99.90;;;;;;5003277;28;20172;-66
2022/10/01 08:56:46;;;;;;;5.67;3.37;;;8.70;99.90;;;;;;5001993;28;20427;-65
2022/10/01 08:59:43;;;;;;;4.40;4.00;;;8.70;99.90;;;;;;5003991;28;21224;-64
2022/10/01 09:02:17;;;;;;;5.63;4.23;;;8.70;99.90;;;;;;4997561;28;20287;-64
2022/10/01 09:04:43;;;;;;;5.13;3.37;;;8.70;99.90;;;;;;5003353;28;20408;-64
2022/10/01 09:07:47;;;;;;;4.87;3.57;;;8.70;99.90;;;;;;5011227;28;20435;-64
2022/10/01 09:10:23;;;;;;;3.70;3.30;;;8.70;99.90;;;;;;5009346;28;20462;-64
2022/10/01 09:13:05;;;;;;;8.20;3.57;;;8.70;99.90;;;;;;4991238;28;20463;-64
2022/10/01 09:15:37;;;;;;;4.50;3.80;;;8.70;99.90;;;;;;5012086;28;20427;-64
2022/10/01 09:18:29;;;;;;;4.10;3.70;;;8.70;99.90;;;;;;5012183;28;21129;-64
2022/10/01 09:20:57;;;;;;;4.73;3.60;;;8.80;99.90;;;;;;5011923;28;20411;-64
2022/10/01 09:23:26;;;;;;;6.50;3.60;;;8.80;99.90;;;;;;5009812;28;20828;-64
2022/10/01 09:25:52;;;;;;;4.97;3.83;;;8.80;99.90;;;;;;5003008;28;20432;-64
2022/10/01 09:28:38;;;;;;;6.50;3.90;;;8.80;99.90;;;;;;5007559;28;20438;-64
2022/10/01 09:31:15;;;;;;;5.33;3.90;;;8.90;99.90;;;;;;5011833;28;20192;-64
2022/10/01 09:33:53;;;;;;;17.50;4.53;;;8.90;99.90;;;;;;5012056;28;21123;-64
2022/10/01 09:36:36;;;;;;;6.23;3.83;;;8.90;99.90;;;;;;5010162;28;20439;-64
2022/10/01 09:39:16;;;;;;;5.53;3.97;;;8.90;99.90;;;;;;5009900;28;20812;-64
2022/10/01 09:41:45;;;;;;;3.90;3.13;;;8.90;99.90;;;;;;5010220;28;20431;-64
2022/10/01 09:44:16;;;;;;;3.67;3.33;;;9.00;99.90;;;;;;5012454;28;20446;-64
2022/10/01 09:46:44;;;;;;;4.77;2.87;;;9.00;99.90;;;;;;5010373;28;20466;-64
2022/10/01 09:49:42;;;;;;;3.50;3.20;;;9.00;99.90;;;;;;5011639;28;20461;-64
2022/10/01 09:52:17;;;;;;;3.60;3.30;;;9.00;99.90;;;;;;5004283;28;20463;-64
2022/10/01 09:54:59;;;;;;;6.40;3.60;;;9.10;99.90;;;;;;4997511;28;20489;-64
2022/10/01 09:57:32;;;;;;;4.00;3.13;;;9.10;99.90;;;;;;5010760;28;21031;-64
2022/10/01 10:00:18;;;;;;;5.53;3.53;;;9.20;99.90;;;;;;5010597;28;20523;-64
2022/10/01 10:02:45;;;;;;;4.53;3.13;;;9.30;99.90;;;;;;5008951;28;20474;-64
2022/10/01 10:05:17;;;;;;;3.73;3.10;;;9.30;99.90;;;;;;5007939;28;20455;-64
2022/10/01 10:07:45;;;;;;;3.20;2.90;;;9.50;99.90;;;;;;5008345;28;20430;-64
2022/10/01 10:10:21;;;;;;;4.30;3.43;;;9.50;99.90;;;;;;4994361;28;20459;-64
2022/10/01 10:12:53;;;;;;;3.00;2.80;;;9.60;99.90;;;;;;5004717;28;21143;-63
2022/10/01 10:15:21;;;;;;;3.13;2.83;;;9.70;99.90;;;;;;5009836;28;20959;-64
2022/10/01 10:17:50;;;;;;;6.87;3.43;;;9.70;99.90;;;;;;5005361;28;20529;-64
2022/10/01 10:20:28;;;;;;;4.20;3.80;;;9.70;99.90;;;;;;5003457;28;20998;-64
2022/10/01 10:23:04;;;;;;;3.67;3.37;;;9.70;99.90;;;;;;5011457;28;21006;-64
2022/10/01 10:25:30;;;;;;;9.20;3.53;;;9.70;99.90;;;;;;5007442;28;20482;-64
2022/10/01 10:27:58;;;;;;;4.90;3.83;;;9.70;99.90;;;;;;5007898;28;20435;-64
2022/10/01 10:30:25;;;;;;;4.97;3.73;;;9.70;99.90;;;;;;5005453;28;20216;-64
2022/10/01 10:33:01;;;;;;;4.27;3.63;;;9.80;99.90;;;;;;5007919;28;20463;-64
2022/10/01 10:35:27;;;;;;;3.87;3.13;;;9.80;99.90;;;;;;5006637;28;20462;-63
2022/10/01 10:37:56;;;;;;;7.60;3.37;;;9.80;99.90;;;;;;5014922;28;20703;-64
2022/10/01 10:40:26;;;;;;;3.50;2.80;;;9.90;99.90;;;;;;5008828;28;20463;-64
2022/10/01 10:42:56;;;;;;;3.37;3.07;;;9.90;99.90;;;;;;5013997;28;20462;-64
2022/10/01 10:45:36;;;;;;;4.50;3.20;;;9.90;99.90;;;;;;5006521;28;20493;-65
2022/10/01 10:48:06;;;;;;;5.63;3.10;;;9.90;99.90;;;;;;5018981;28;20419;-64
2022/10/01 10:50:36;;;;;;;3.20;2.90;;;9.90;99.90;;;;;;5011386;28;20473;-64
2022/10/01 10:53:21;;;;;;;3.40;3.00;;;9.90;99.90;;;;;;5024607;28;20543;-64
2022/10/01 10:55:59;;;;;;;3.27;2.90;;;9.90;99.90;;;;;;5009342;28;20464;-64
2022/10/01 10:58:30;;;;;;;3.10;2.83;;;9.90;99.90;;;;;;5010696;28;21035;-64
2022/10/01 11:01:24;;;;;;;4.30;2.70;;;9.90;99.90;;;;;;5010341;28;20470;-65
2022/10/01 11:03:54;;;;;;;3.20;2.90;;;9.80;99.90;;;;;;5010187;28;20410;-64
2022/10/01 11:06:21;;;;;;;4.30;2.93;;;9.80;99.90;;;;;;5008845;28;20427;-64
2022/10/01 11:08:56;;;;;;;5.60;3.30;;;9.80;99.90;;;;;;5007783;28;20447;-64
2022/10/01 11:11:36;;;;;;;3.17;2.87;;;9.80;99.90;;;;;;5007915;28;20455;-64
2022/10/01 11:14:17;;;;;;;3.40;3.10;;;9.70;99.90;;;;;;4993906;28;20458;-64
2022/10/01 11:16:49;;;;;;;3.73;2.83;;;9.70;99.90;;;;;;5007293;28;20482;-64
2022/10/01 11:19:17;;;;;;;4.90;3.70;;;9.70;99.90;;;;;;5004607;28;20455;-64
2022/10/01 11:21:55;;;;;;;3.90;3.50;;;9.70;99.90;;;;;;5015699;28;20415;-64
2022/10/01 11:24:55;;;;;;;3.90;3.37;;;9.70;99.90;;;;;;5004843;28;20463;-64
2022/10/01 11:27:35;;;;;;;3.43;3.10;;;9.70;99.90;;;;;;5009936;28;20415;-64
2022/10/01 11:30:25;;;;;;;4.13;3.30;;;9.70;99.90;;;;;;5010226;28;20430;-65
2022/10/01 11:33:15;;;;;;;3.10;2.73;;;9.70;99.90;;;;;;5008451;28;20475;-64
2022/10/01 11:35:45;;;;;;;3.33;3.03;;;9.80;99.90;;;;;;5010855;28;20465;-64
2022/10/01 11:38:24;;;;;;;4.43;3.40;;;9.80;99.90;;;;;;5007256;28;20427;-64
2022/10/01 11:41:22;;;;;;;7.80;3.60;;;9.70;99.90;;;;;;5006538;28;20500;-65
2022/10/01 11:43:53;;;;;;;4.00;3.20;;;9.70;99.90;;;;;;5006569;28;21017;-64
2022/10/01 11:46:47;;;;;;;3.53;3.23;;;9.70;99.90;;;;;;5009917;28;20414;-64
2022/10/01 11:49:58;;;;;;;4.50;3.53;;;9.70;99.90;;;;;;5002066;28;20458;-65
2022/10/01 11:52:52;;;;;;;3.37;3.07;;;9.70;99.90;;;;;;5008460;28;20584;-64
2022/10/01 12:01:24;;;;;;;4.30;3.60;;;9.80;99.90;;;;;;5003122;28;21006;-65
2022/10/01 12:03:53;;;;;;;7.27;3.80;;;9.80;99.90;;;;;;4997733;28;20830;-64
2022/10/01 12:06:43;;;;;;;3.30;3.00;;;9.80;99.90;;;;;;5008867;28;20813;-64
2022/10/01 12:09:36;;;;;;;3.80;2.93;;;9.80;99.90;;;;;;5003933;28;20870;-64
2022/10/01 12:12:10;;;;;;;3.00;2.70;;;9.80;99.90;;;;;;5003472;28;20543;-64
2022/10/01 12:15:03;;;;;;;2.93;2.73;;;9.90;99.90;;;;;;5008506;28;20538;-64
2022/10/01 12:17:42;;;;;;;3.63;3.13;;;9.90;99.90;;;;;;4995599;28;20434;-64
2022/10/01 12:20:18;;;;;;;3.87;2.90;;;9.90;99.90;;;;;;4995778;28;20541;-64
2022/10/01 12:22:44;;;;;;;4.03;2.87;;;10.00;99.90;;;;;;5007115;28;20447;-64
2022/10/01 12:25:12;;;;;;;2.50;2.30;;;10.00;99.90;;;;;;5003621;28;21009;-64
2022/10/01 12:27:37;;;;;;;2.40;2.20;;;10.00;99.90;;;;;;5002789;28;20958;-64
2022/10/01 12:30:23;;;;;;;6.17;2.77;;;10.00;99.90;;;;;;5008650;28;20463;-64
2022/10/01 12:33:07;;;;;;;2.70;2.07;;;10.00;99.90;;;;;;5007123;28;20204;-64
2022/10/01 12:35:34;;;;;;;3.97;2.47;;;10.10;99.90;;;;;;5003797;28;20517;-64
2022/10/01 12:38:18;;;;;;;2.63;2.30;;;10.10;99.90;;;;;;5007031;28;21140;-64
2022/10/01 12:41:03;;;;;;;2.57;2.37;;;10.10;99.90;;;;;;5008533;28;20965;-64
2022/10/01 12:43:34;;;;;;;2.60;2.10;;;10.20;99.90;;;;;;5010891;28;20446;-64
2022/10/01 12:46:04;;;;;;;2.50;2.00;;;10.20;99.90;;;;;;5008848;28;20435;-64
2022/10/01 12:48:55;;;;;;;2.20;1.80;;;10.20;99.90;;;;;;5011934;28;20829;-64
2022/10/01 12:51:38;;;;;;;2.73;2.10;;;10.20;99.90;;;;;;5008294;28;20521;-65
2022/10/01 12:54:11;;;;;;;5.67;2.63;;;10.30;99.90;;;;;;5011388;28;20486;-64
2022/10/01 12:56:44;;;;;;;2.10;2.00;;;10.30;99.90;;;;;;5015413;28;20558;-64
2022/10/01 12:59:29;;;;;;;3.93;2.40;;;10.30;99.90;;;;;;5013771;28;20457;-63
2022/10/01 13:02:00;;;;;;;4.57;2.63;;;10.40;99.90;;;;;;5012990;28;20454;-64
2022/10/01 13:04:30;;;;;;;1.93;1.83;;;10.40;99.90;;;;;;5008373;28;20774;-63
2022/10/01 13:07:38;;;;;;;3.30;2.40;;;10.40;99.90;;;;;;4992391;28;20486;-64
2022/10/01 13:10:38;;;;;;;2.13;1.93;;;10.50;99.90;;;;;;5004919;28;20464;-64
2022/10/01 13:13:06;;;;;;;2.23;2.03;;;10.50;99.90;;;;;;5004264;28;20565;-64
2022/10/01 13:15:36;;;;;;;4.70;1.90;;;10.50;99.90;;;;;;5006849;28;20443;-64
2022/10/01 13:18:37;;;;;;;1.83;1.73;;;10.50;99.90;;;;;;5012907;28;20526;-64
2022/10/01 13:21:21;;;;;;;2.07;1.73;;;10.50;99.90;;;;;;5007339;28;20431;-64
2022/10/01 13:24:03;;;;;;;5.60;1.87;;;10.50;99.90;;;;;;5009643;28;20442;-64
2022/10/01 13:26:43;;;;;;;1.73;1.57;;;10.50;99.90;;;;;;5018336;28;20543;-64
2022/10/01 13:29:46;;;;;;;3.80;2.77;;;10.50;99.90;;;;;;5009864;28;20451;-64